Time;durP1;ratioP1;P1;durP2;ratioP2;P2;SDS_P1;SDS_P2;PMS_P1;PMS_P2;Temp;Humidity;BMP_temperature;BMP_pressure;BME280_temperature;BME280_humidity;BME280_pressure;Samples;Min_cycle;Max_cycle;Signal;HPM_P1;HPM_P2
2022/01/01 00:00:02;;;;;;;16.97;9.40;;;;;;;10.32;nan;102306.88;6155224;23;20435;-86
2022/01/01 00:02:30;;;;;;;13.90;9.60;;;;;;;10.31;nan;102305.16;6130945;23;20480;-86
2022/01/01 00:05:06;;;;;;;22.40;12.70;;;;;;;10.31;nan;102310.59;6109305;23;20951;-86
2022/01/01 00:07:39;;;;;;;26.53;14.93;;;;;;;10.30;nan;102303.44;6130563;23;20410;-86
2022/01/01 00:10:09;;;;;;;28.10;15.20;;;;;;;10.32;nan;102295.94;6154803;23;20445;-87
2022/01/01 00:12:40;;;;;;;37.63;13.73;;;;;;;10.35;nan;102312.03;6130852;23;20484;-86
2022/01/01 00:15:08;;;;;;;18.50;10.87;;;;;;;10.34;nan;102303.97;6131089;23;20413;-87
2022/01/01 00:17:37;;;;;;;18.87;10.20;;;;;;;10.21;nan;102290.66;6155076;23;20851;-86
2022/01/01 00:20:05;;;;;;;21.07;12.43;;;;;;;10.30;nan;102311.63;6130805;23;20484;-86
2022/01/01 00:22:34;;;;;;;16.20;10.47;;;;;;;10.22;nan;102292.38;6082984;23;20441;-89
2022/01/01 00:25:02;;;;;;;13.27;8.07;;;;;;;10.14;nan;102283.22;6125559;23;20814;-86
2022/01/01 00:27:30;;;;;;;16.20;9.53;;;;;;;10.04;nan;102286.84;6125586;23;20406;-87
2022/01/01 00:29:58;;;;;;;11.70;7.83;;;;;;;10.00;nan;102293.66;6077454;23;20574;-86
2022/01/01 00:32:26;;;;;;;13.57;8.60;;;;;;;9.96;nan;102286.78;6101119;23;20494;-86
2022/01/01 00:34:57;;;;;;;16.50;9.23;;;;;;;10.00;nan;102301.84;6101496;23;20460;-86
2022/01/01 00:37:27;;;;;;;17.73;9.17;;;;;;;9.87;nan;102281.34;6101330;23;20410;-85
2022/01/01 00:39:55;;;;;;;17.27;9.33;;;;;;;9.89;nan;102282.06;6125567;23;20882;-87
2022/01/01 00:42:23;;;;;;;21.43;14.00;;;;;;;9.97;nan;102298.56;6100697;23;20481;-86
2022/01/01 00:44:52;;;;;;;18.97;12.20;;;;;;;9.90;nan;102290.09;6077709;23;20406;-86
2022/01/01 00:47:21;;;;;;;18.13;7.27;;;;;;;10.02;nan;102309.88;6100936;23;20418;-87
2022/01/01 00:49:49;;;;;;;12.60;7.60;;;;;;;9.90;nan;102291.97;6101241;23;20395;-87
2022/01/01 00:52:17;;;;;;;17.13;8.93;;;;;;;9.97;nan;102312.22;6100948;23;20407;-87
2022/01/01 00:54:46;;;;;;;49.27;30.37;;;;;;;9.85;nan;102286.97;6077741;23;20413;-87
2022/01/01 00:57:14;;;;;;;42.80;25.10;;;;;;;9.90;nan;102284.66;6125566;23;20391;-88
2022/01/01 00:59:45;;;;;;;43.20;24.37;;;;;;;9.99;nan;102300.13;6101116;23;20406;-88
2022/01/01 01:02:13;;;;;;;44.03;26.53;;;;;;;9.95;nan;102292.38;6101748;23;20735;-87
2022/01/01 01:04:43;;;;;;;64.23;35.10;;;;;;;9.89;nan;102273.88;6076638;23;20410;-87
2022/01/01 01:07:12;;;;;;;44.60;28.57;;;;;;;9.92;nan;102284.50;6126459;23;20410;-87
2022/01/01 01:09:41;;;;;;;58.43;32.43;;;;;;;10.03;nan;102303.41;6101326;23;20414;-87
2022/01/01 01:12:55;;;;;;;31.53;18.00;;;;;;;10.05;nan;102304.13;6124871;23;20733;-87
2022/01/01 01:15:24;;;;;;;17.57;9.47;;;;;;;9.86;nan;102288.69;6126732;23;20410;-87
2022/01/01 01:21:44;;;;;;;21.73;9.37;;;;;;;9.72;nan;102269.22;6139758;23;20517;-87
2022/01/01 01:24:19;;;;;;;17.10;12.47;;;;;;;9.74;nan;102278.13;6106472;23;20488;-87
2022/01/01 01:31:01;;;;;;;46.20;28.60;;;;;;;9.85;nan;102302.50;6156066;23;20468;-87
2022/01/01 01:33:29;;;;;;;22.60;12.33;;;;;;;9.78;nan;102288.59;6155778;23;20406;-87
2022/01/01 01:35:57;;;;;;;20.37;10.57;;;;;;;9.84;nan;102300.75;6106256;23;20853;-87
2022/01/01 01:38:25;;;;;;;17.20;10.40;;;;;;;9.73;nan;102282.72;6130203;23;20411;-87
2022/01/01 01:40:53;;;;;;;52.93;31.17;;;;;;;9.81;nan;102290.16;6130235;23;20489;-87
2022/01/01 02:10:25;;;;;;;51.63;26.83;;;;;;;9.47;nan;102296.16;6094592;23;20403;-87
2022/01/01 04:32:23;;;;;;;8.67;4.80;;;;;;;8.65;nan;102244.09;6150732;23;21009;-87
2022/01/01 07:40:26;;;;;;;7.40;4.47;;;;;;;7.95;nan;102332.25;6156771;23;20384;-87
2022/01/01 07:43:24;;;;;;;8.40;4.77;;;;;;;7.89;nan;102330.06;6045852;23;20403;-88
2022/01/01 07:50:22;;;;;;;;;;;;;;;;;;;;;
2022/01/01 08:04:27;;;;;;;8.33;4.60;;;;;;;7.71;nan;102342.59;6095714;23;20416;-87
2022/01/01 08:15:11;;;;;;;6.03;3.50;;;;;;;7.65;nan;102348.63;6095561;23;20877;-87
2022/01/01 08:17:57;;;;;;;7.30;4.37;;;;;;;7.69;nan;102360.97;6049957;23;20411;-87
2022/01/01 08:20:56;;;;;;;7.93;3.90;;;;;;;7.63;nan;102352.31;6051793;23;20404;-87
2022/01/01 08:32:08;;;;;;;5.63;4.00;;;;;;;8.01;nan;102386.16;6156689;23;20440;-88
2022/01/01 08:34:45;;;;;;;14.20;3.80;;;;;;;7.95;nan;102362.22;6130712;23;20404;-87
2022/01/01 08:44:56;;;;;;;8.50;4.20;;;;;;;8.14;nan;102383.19;6155837;23;20428;-87
2022/01/01 08:47:26;;;;;;;8.17;4.60;;;;;;;8.12;nan;102374.31;6129284;23;20405;-87
2022/01/01 08:50:48;;;;;;;12.90;5.07;;;;;;;8.28;nan;102391.84;6083409;23;20413;-87
2022/01/01 08:53:33;;;;;;;8.87;5.80;;;;;;;8.22;nan;102375.22;6118377;23;20968;-87
2022/01/01 08:56:40;;;;;;;14.97;6.67;;;;;;;8.43;nan;102407.84;6083882;23;20516;-87
2022/01/01 08:59:44;;;;;;;16.60;7.07;;;;;;;8.46;nan;102402.13;6094704;23;21036;-87
2022/01/01 09:02:29;;;;;;;11.17;6.67;;;;;;;8.52;nan;102393.38;6074784;23;20535;-87
2022/01/01 09:05:35;;;;;;;10.70;5.40;;;;;;;8.71;nan;102412.50;6095074;23;20402;-87
2022/01/01 09:08:20;;;;;;;10.77;6.63;;;;;;;8.66;nan;102395.69;6094613;23;20478;-87
2022/01/01 09:11:10;;;;;;;11.63;7.50;;;;;;;8.84;nan;102421.28;6094922;23;20517;-87
2022/01/01 09:13:55;;;;;;;11.87;6.83;;;;;;;8.93;nan;102431.34;6094961;23;20402;-87
2022/01/01 09:17:12;;;;;;;12.43;7.20;;;;;;;8.99;nan;102417.13;6089400;23;20879;-87
2022/01/01 09:23:43;;;;;;;9.10;5.60;;;;;;;9.31;nan;102421.44;6156333;23;20428;-84
2022/01/01 09:26:28;;;;;;;10.07;5.63;;;;;;;9.52;nan;102435.78;6016535;23;20916;-86
2022/01/01 09:29:00;;;;;;;10.97;6.83;;;;;;;9.67;nan;102442.50;6101027;23;20497;-85
2022/01/01 09:31:31;;;;;;;10.80;6.17;;;;;;;9.91;nan;102465.75;6078512;23;20445;-83
2022/01/01 09:46:41;;;;;;;;;;;;;;;;;;;;;
2022/01/01 09:57:25;;;;;;;5.60;3.30;;;;;;;12.15;nan;102479.53;5738791;25;20410;-84
2022/01/01 10:00:32;;;;;;;8.67;4.23;;;;;;;12.59;nan;102487.66;5765340;24;20403;-84
2022/01/01 10:07:34;;;;;;;;;;;;;;;;;;;;;
2022/01/01 10:52:42;;;;;;;;;;;;;;;;;;;;;
2022/01/01 12:28:24;;;;;;;14.20;8.10;;;;;;;18.49;nan;102399.56;6123441;23;20418;-92
2022/01/01 12:31:06;;;;;;;11.93;7.07;;;;;;;18.61;nan;102408.19;6080781;23;20774;-90
2022/01/01 12:33:50;;;;;;;14.90;8.00;;;;;;;18.55;nan;102392.34;6083557;23;20416;-90
2022/01/01 12:36:24;;;;;;;19.40;8.57;;;;;;;18.62;nan;102394.13;6079167;23;20498;-91
2022/01/01 12:39:01;;;;;;;17.43;8.90;;;;;;;18.73;nan;102409.28;6079089;23;20414;-93
2022/01/01 12:41:33;;;;;;;15.97;8.20;;;;;;;18.69;nan;102393.28;6103267;23;20418;-91
2022/01/01 12:44:21;;;;;;;15.07;8.20;;;;;;;18.80;nan;102387.16;6078742;23;20738;-92
2022/01/01 12:47:01;;;;;;;13.57;7.60;;;;;;;18.94;nan;102394.44;6106128;23;20759;-90
2022/01/01 12:49:33;;;;;;;14.40;8.03;;;;;;;19.08;nan;102404.47;6080013;23;20897;-90
2022/01/01 12:52:47;;;;;;;13.30;7.90;;;;;;;19.23;nan;102409.88;6058358;23;20556;-90
2022/01/01 12:55:35;;;;;;;11.37;7.70;;;;;;;19.29;nan;102396.00;6105734;23;20537;-89
2022/01/01 12:58:08;;;;;;;12.73;7.27;;;;;;;19.38;nan;102387.50;6078148;23;20507;-89
2022/01/01 13:00:38;;;;;;;16.87;7.27;;;;;;;19.45;nan;102388.31;6078268;23;20526;-89
2022/01/01 13:03:07;;;;;;;12.77;7.73;;;;;;;19.35;nan;102360.19;6078880;23;20752;-89
2022/01/01 13:05:38;;;;;;;13.73;6.77;;;;;;;19.39;nan;102367.88;6055538;23;20410;-86
2022/01/01 13:12:16;;;;;;;11.80;6.80;;;;;;;19.36;nan;102384.94;6118984;23;20465;-85
2022/01/01 13:19:09;;;;;;;13.30;8.27;;;;;;;19.64;nan;102357.84;6095140;23;20378;-87
2022/01/01 13:25:29;;;;;;;16.13;7.37;;;;;;;19.44;nan;102347.78;6083645;23;20409;-88
2022/01/01 13:32:08;;;;;;;13.43;8.17;;;;;;;18.89;nan;102347.09;6064634;23;20462;-88
2022/01/01 13:34:53;;;;;;;18.40;9.40;;;;;;;18.61;nan;102336.16;6057989;23;21026;-90
2022/01/01 13:37:45;;;;;;;14.77;9.10;;;;;;;18.53;nan;102326.09;6044121;23;20408;-92
2022/01/01 13:40:15;;;;;;;21.50;10.17;;;;;;;18.51;nan;102328.19;6065230;23;20427;-92
2022/01/01 13:42:44;;;;;;;20.07;10.03;;;;;;;18.53;nan;102328.84;6065623;23;20423;-90
2022/01/01 13:45:15;;;;;;;18.27;10.33;;;;;;;18.72;nan;102338.31;6018957;23;20571;-91
2022/01/01 13:47:46;;;;;;;22.97;10.70;;;;;;;18.88;nan;102326.00;6020669;23;20507;-92
2022/01/01 13:50:20;;;;;;;16.23;11.13;;;;;;;19.01;nan;102314.09;6043052;23;20396;-91
2022/01/01 13:52:57;;;;;;;18.10;10.90;;;;;;;19.23;nan;102319.25;6043347;23;20451;-91
2022/01/01 13:55:36;;;;;;;24.70;11.57;;;;;;;19.40;nan;102324.34;6045662;23;20482;-92
2022/01/01 13:58:04;;;;;;;20.43;11.43;;;;;;;19.47;nan;102311.31;6019069;23;20420;-91
2022/01/01 14:00:35;;;;;;;24.50;11.67;;;;;;;19.53;nan;102313.28;6066439;23;20495;-90
2022/01/01 14:03:03;;;;;;;22.03;10.90;;;;;;;19.70;nan;102336.72;6052039;23;20399;-90
2022/01/01 14:05:31;;;;;;;19.37;10.67;;;;;;;19.75;nan;102334.16;6078781;23;20493;-90
2022/01/01 14:08:17;;;;;;;17.10;10.43;;;;;;;19.77;nan;102325.63;6055075;23;20968;-90
2022/01/01 14:10:57;;;;;;;19.00;10.63;;;;;;;19.80;nan;102323.28;6056092;23;20391;-91
2022/01/01 14:13:37;;;;;;;20.80;9.60;;;;;;;19.87;nan;102326.88;6066940;23;20433;-90
2022/01/01 14:16:47;;;;;;;16.20;9.80;;;;;;;19.97;nan;102327.28;6079807;23;20552;-89
2022/01/01 14:19:17;;;;;;;22.70;10.93;;;;;;;19.98;nan;102331.78;6002611;23;20418;-90
2022/01/01 14:21:49;;;;;;;22.73;11.03;;;;;;;19.85;nan;102319.84;5961564;23;20497;-89
2022/01/01 14:25:01;;;;;;;16.73;10.23;;;;;;;19.95;nan;102337.75;5985831;23;20495;-85
2022/01/01 14:31:14;;;;;;;15.90;8.47;;;;;;;19.79;nan;102309.63;5937149;24;20774;-85
2022/01/01 14:34:03;;;;;;;12.90;8.40;;;;;;;19.80;nan;102319.66;5972338;24;20415;-85
2022/01/01 14:36:43;;;;;;;15.40;8.30;;;;;;;19.89;nan;102327.50;5983979;23;20438;-85
2022/01/01 14:39:19;;;;;;;14.20;7.60;;;;;;;19.90;nan;102323.66;6033092;23;20786;-85
2022/01/01 14:41:50;;;;;;;15.30;7.17;;;;;;;19.94;nan;102324.94;6032378;23;20411;-85
2022/01/01 14:44:19;;;;;;;15.97;8.40;;;;;;;19.93;nan;102317.69;6056227;23;20420;-85
2022/01/01 14:46:52;;;;;;;17.47;8.03;;;;;;;19.97;nan;102323.66;6050054;23;20420;-85
2022/01/01 14:49:57;;;;;;;12.40;6.97;;;;;;;19.96;nan;102331.13;6032875;23;20434;-86
2022/01/01 14:52:26;;;;;;;12.67;6.10;;;;;;;19.82;nan;102323.88;6055411;23;20440;-86
2022/01/01 14:55:26;;;;;;;15.10;6.60;;;;;;;19.56;nan;102326.72;6055193;23;20436;-86
2022/01/01 14:57:59;;;;;;;14.80;6.47;;;;;;;19.17;nan;102328.41;6035655;23;20422;-85
2022/01/01 15:00:28;;;;;;;13.50;6.53;;;;;;;18.85;nan;102326.44;6032371;23;20430;-85
2022/01/01 15:02:57;;;;;;;16.30;6.20;;;;;;;18.56;nan;102322.06;6077605;23;20804;-84
2022/01/01 15:05:25;;;;;;;19.33;6.37;;;;;;;18.33;nan;102322.38;6101222;23;20406;-84
2022/01/01 15:07:53;;;;;;;12.80;6.63;;;;;;;18.18;nan;102333.59;6077801;23;20586;-84
2022/01/01 15:10:23;;;;;;;12.17;5.80;;;;;;;18.19;nan;102332.56;6077354;23;20444;-85
2022/01/01 15:12:51;;;;;;;21.63;7.40;;;;;;;18.27;nan;102326.00;6078000;23;20453;-84
2022/01/01 15:15:19;;;;;;;13.13;5.67;;;;;;;18.38;nan;102324.53;6077202;23;20764;-85
2022/01/01 15:18:00;;;;;;;12.43;5.83;;;;;;;18.53;nan;102336.31;6077164;23;20903;-84
2022/01/01 15:48:15;;;;;;;14.30;8.63;;;;;;;17.74;nan;102350.56;5981576;24;20411;-88
2022/01/01 15:54:45;;;;;;;14.80;8.63;;;;;;;17.89;nan;102359.63;5955431;24;20474;-87
2022/01/01 15:57:51;;;;;;;;;;;;;;;;;;;;;
2022/01/01 16:01:06;;;;;;;15.73;7.60;;;;;;;18.16;nan;102370.84;5933311;24;20510;-90
2022/01/01 16:04:39;;;;;;;15.77;7.40;;;;;;;18.04;nan;102367.81;5945351;24;20415;-86
